Time;durP1;ratioP1;P1;durP2;ratioP2;P2;SDS_P1;SDS_P2;PMS_P1;PMS_P2;Temp;Humidity;BMP_temperature;BMP_pressure;BME280_temperature;BME280_humidity;BME280_pressure;Samples;Min_cycle;Max_cycle;Signal;HPM_P1;HPM_P2
2023/09/17 00:02:14;;;;;;;22.70;16.58;;;;;;;17.99;100.00;101247.84;5013308;28;20092;-63
2023/09/17 00:04:40;;;;;;;23.25;16.63;;;;;;;17.90;100.00;101248.75;5013077;28;20044;-64
2023/09/17 00:07:05;;;;;;;21.83;16.45;;;;;;;17.84;100.00;101246.50;5013261;28;20557;-63
2023/09/17 00:09:30;;;;;;;22.40;16.60;;;;;;;17.77;100.00;101249.88;5013036;28;20033;-64
2023/09/17 00:11:56;;;;;;;22.00;15.80;;;;;;;17.65;100.00;101241.44;5013053;28;20601;-64
2023/09/17 00:14:21;;;;;;;22.75;16.65;;;;;;;17.50;100.00;101238.13;5012925;28;20033;-63
2023/09/17 00:16:47;;;;;;;23.05;17.25;;;;;;;17.42;100.00;101225.88;5012934;28;20394;-63
2023/09/17 00:19:12;;;;;;;22.35;17.27;;;;;;;17.33;100.00;101229.91;5012956;28;20056;-63
2023/09/17 00:21:38;;;;;;;22.60;18.00;;;;;;;17.27;100.00;101230.13;5012821;28;20030;-63
2023/09/17 00:24:04;;;;;;;23.45;17.83;;;;;;;17.23;100.00;101231.16;5012602;28;20057;-63
2023/09/17 00:26:29;;;;;;;25.60;18.05;;;;;;;17.15;100.00;101216.91;5012994;28;20021;-63
2023/09/17 00:28:54;;;;;;;25.23;16.42;;;;;;;17.10;100.00;101214.31;5012806;28;20148;-63
2023/09/17 00:31:20;;;;;;;22.80;16.88;;;;;;;17.03;100.00;101204.84;5012789;28;20033;-64
2023/09/17 00:33:45;;;;;;;21.83;16.33;;;;;;;16.98;100.00;101203.91;5011417;28;20434;-63
2023/09/17 00:36:10;;;;;;;23.80;16.92;;;;;;;16.97;100.00;101202.25;5011316;28;20037;-64
2023/09/17 00:38:36;;;;;;;21.77;16.40;;;;;;;16.93;100.00;101203.25;5012577;28;20223;-64
2023/09/17 00:41:01;;;;;;;22.85;16.48;;;;;;;16.91;100.00;101197.19;5012499;28;20539;-65
2023/09/17 00:43:26;;;;;;;22.60;16.98;;;;;;;16.90;100.00;101198.34;5012374;28;20030;-64
2023/09/17 00:45:52;;;;;;;22.73;16.83;;;;;;;16.82;100.00;101198.06;5012379;28;20050;-63
2023/09/17 00:48:17;;;;;;;22.27;16.80;;;;;;;16.80;100.00;101192.00;5012174;28;20026;-63
2023/09/17 00:50:44;;;;;;;23.17;16.45;;;;;;;16.81;100.00;101192.84;5012349;28;20440;-63
2023/09/17 00:53:09;;;;;;;21.38;16.55;;;;;;;16.83;100.00;101188.53;5012106;28;20140;-63
2023/09/17 00:55:35;;;;;;;22.60;16.17;;;;;;;16.81;100.00;101198.44;5012167;28;20053;-63
2023/09/17 00:58:01;;;;;;;23.95;16.30;;;;;;;16.78;100.00;101205.50;5012125;28;20060;-65
2023/09/17 01:00:26;;;;;;;22.52;16.38;;;;;;;16.77;100.00;101212.22;5012187;28;20457;-64
2023/09/17 01:02:54;;;;;;;22.63;15.82;;;;;;;16.81;100.00;101212.41;5012163;28;20096;-63
2023/09/17 01:05:20;;;;;;;21.38;15.48;;;;;;;16.84;100.00;101225.66;5012097;28;20044;-63
2023/09/17 01:07:46;;;;;;;22.15;15.82;;;;;;;16.91;100.00;101225.94;5011997;28;20029;-63
2023/09/17 01:10:11;;;;;;;22.70;15.85;;;;;;;16.94;100.00;101242.06;5012057;28;20029;-63
2023/09/17 01:12:38;;;;;;;22.38;16.40;;;;;;;16.96;100.00;101242.53;5011918;28;20068;-63
2023/09/17 01:15:06;;;;;;;21.95;16.08;;;;;;;16.88;100.00;101257.38;5011870;28;20057;-63
2023/09/17 01:17:31;;;;;;;22.63;17.33;;;;;;;16.92;100.00;101263.91;5011670;28;20557;-63
2023/09/17 01:19:57;;;;;;;23.58;17.27;;;;;;;16.78;100.00;101236.22;5011905;28;20121;-63
2023/09/17 01:22:35;;;;;;;24.25;17.48;;;;;;;16.67;100.00;101226.63;5011644;28;20077;-64
2023/09/17 01:25:11;;;;;;;25.15;18.00;;;;;;;16.47;100.00;101203.91;5011505;28;20065;-64
2023/09/17 01:27:42;;;;;;;24.75;17.63;;;;;;;16.31;100.00;101192.50;5011939;28;20038;-64
2023/09/17 01:30:21;;;;;;;22.85;18.13;;;;;;;16.22;100.00;101192.53;5011641;28;20116;-64
2023/09/17 01:32:47;;;;;;;23.55;17.55;;;;;;;16.18;100.00;101183.22;5011444;28;20033;-64
2023/09/17 01:35:15;;;;;;;25.05;18.65;;;;;;;16.15;100.00;101199.81;5011660;28;20099;-64
2023/09/17 01:37:53;;;;;;;25.42;19.45;;;;;;;16.12;100.00;101201.28;5011408;28;20112;-64
2023/09/17 01:40:18;;;;;;;26.02;19.52;;;;;;;16.15;100.00;101199.81;5011472;28;20030;-64
2023/09/17 01:42:46;;;;;;;24.25;19.08;;;;;;;16.09;100.00;101193.59;5011389;28;20029;-63
2023/09/17 01:45:13;;;;;;;24.38;19.10;;;;;;;16.15;100.00;101197.81;5011068;28;20055;-64
2023/09/17 01:47:41;;;;;;;25.52;20.15;;;;;;;16.05;100.00;101185.09;5011439;28;20022;-63
2023/09/17 01:50:08;;;;;;;25.98;20.73;;;;;;;15.93;100.00;101187.75;5011224;28;20105;-63
2023/09/17 01:52:34;;;;;;;25.17;20.90;;;;;;;15.88;100.00;101185.97;5011378;28;20026;-63
2023/09/17 01:55:03;;;;;;;26.15;21.17;;;;;;;15.83;100.00;101176.94;5011279;28;20109;-63
2023/09/17 01:57:29;;;;;;;26.23;21.90;;;;;;;15.72;100.00;101174.50;5011246;28;20113;-63
2023/09/17 01:59:54;;;;;;;25.65;21.25;;;;;;;15.65;100.00;101174.19;5010528;28;20105;-64
2023/09/17 02:02:21;;;;;;;25.63;21.23;;;;;;;15.66;100.00;101173.06;5009667;28;20026;-63
2023/09/17 02:04:47;;;;;;;26.73;21.73;;;;;;;15.68;100.00;101173.53;5011243;28;20030;-63
2023/09/17 02:07:15;;;;;;;25.92;21.98;;;;;;;15.70;100.00;101187.16;5011151;28;20048;-63
2023/09/17 02:09:40;;;;;;;26.73;22.13;;;;;;;15.77;100.00;101189.44;5011071;28;20026;-63
2023/09/17 02:12:05;;;;;;;25.38;20.92;;;;;;;15.81;100.00;101191.22;5011164;28;20083;-63
2023/09/17 02:14:31;;;;;;;26.13;21.65;;;;;;;15.82;100.00;101194.81;5010950;28;20482;-63
2023/09/17 02:16:56;;;;;;;28.58;22.58;;;;;;;15.78;100.00;101193.84;5010990;28;20544;-63
2023/09/17 02:19:22;;;;;;;29.95;22.77;;;;;;;15.72;100.00;101182.06;5011103;28;20037;-64
2023/09/17 02:21:47;;;;;;;28.38;22.77;;;;;;;15.58;100.00;101188.66;5011086;28;20029;-63
2023/09/17 02:24:13;;;;;;;26.40;22.02;;;;;;;15.55;100.00;101188.50;5010846;28;20037;-63
2023/09/17 02:26:38;;;;;;;27.42;22.98;;;;;;;15.49;100.00;101182.28;5010917;28;20142;-64
2023/09/17 02:29:06;;;;;;;26.85;23.42;;;;;;;15.44;100.00;101179.69;5010784;28;20036;-63
2023/09/17 02:31:31;;;;;;;28.30;23.45;;;;;;;15.40;100.00;101171.13;5010851;28;20030;-63
2023/09/17 02:33:57;;;;;;;28.48;22.52;;;;;;;15.35;100.00;101160.16;5010842;28;20105;-63
2023/09/17 02:36:23;;;;;;;27.90;22.95;;;;;;;15.25;100.00;101152.16;5010753;28;20025;-64
2023/09/17 02:38:48;;;;;;;26.42;22.75;;;;;;;15.20;100.00;101152.34;5010747;28;20437;-63
2023/09/17 02:41:14;;;;;;;27.00;23.05;;;;;;;15.19;100.00;101137.56;5010700;28;20088;-63
2023/09/17 02:43:39;;;;;;;27.77;23.52;;;;;;;15.09;100.00;101141.53;5010599;28;20053;-64
2023/09/17 02:46:05;;;;;;;27.45;23.33;;;;;;;15.03;100.00;101148.41;5010534;28;20488;-64
2023/09/17 02:48:32;;;;;;;29.13;23.83;;;;;;;15.00;100.00;101142.69;5010675;28;20022;-64
2023/09/17 02:50:58;;;;;;;29.92;23.30;;;;;;;14.96;100.00;101136.94;5010690;28;20049;-64
2023/09/17 02:53:23;;;;;;;28.52;23.73;;;;;;;14.89;100.00;101136.63;5010574;28;20461;-64
2023/09/17 02:55:49;;;;;;;28.60;24.83;;;;;;;14.86;100.00;101126.97;5010639;28;20038;-64
2023/09/17 02:58:15;;;;;;;27.38;23.75;;;;;;;14.84;100.00;101131.22;5010412;28;20355;-64
2023/09/17 03:00:42;;;;;;;29.77;23.40;;;;;;;14.68;100.00;101123.34;5010755;28;20033;-63
2023/09/17 03:03:08;;;;;;;28.80;25.08;;;;;;;14.69;100.00;101124.19;5010552;28;20036;-64
2023/09/17 03:05:33;;;;;;;28.25;24.08;;;;;;;14.68;100.00;101120.56;5010513;28;20022;-64
2023/09/17 03:07:59;;;;;;;29.23;25.00;;;;;;;14.59;100.00;101111.38;5010480;28;20034;-63
2023/09/17 03:10:26;;;;;;;28.80;25.25;;;;;;;14.57;100.00;101114.50;5010485;28;20029;-64
2023/09/17 03:12:52;;;;;;;29.50;24.63;;;;;;;14.58;100.00;101102.22;5013862;28;20037;-64
2023/09/17 03:15:17;;;;;;;28.52;23.58;;;;;;;14.63;100.00;101104.00;5014083;28;20068;-63
2023/09/17 03:17:42;;;;;;;29.27;24.63;;;;;;;14.61;100.00;101104.31;5013765;28;20057;-64
2023/09/17 03:20:17;;;;;;;27.80;23.13;;;;;;;14.62;100.00;101108.75;5013786;28;20057;-63
2023/09/17 03:22:45;;;;;;;29.40;24.55;;;;;;;14.59;100.00;101106.63;5013898;28;20771;-64
2023/09/17 03:25:12;;;;;;;29.88;25.30;;;;;;;14.59;100.00;101101.06;5013517;28;20457;-63
2023/09/17 03:27:38;;;;;;;30.77;24.85;;;;;;;14.55;100.00;101107.63;5013801;28;20117;-64
2023/09/17 03:30:04;;;;;;;28.88;24.67;;;;;;;14.64;100.00;101109.25;5013523;28;20428;-64
2023/09/17 03:32:29;;;;;;;28.55;24.13;;;;;;;14.58;100.00;101107.78;5013625;28;20022;-64
2023/09/17 03:34:55;;;;;;;31.02;26.25;;;;;;;14.57;100.00;101105.31;5013611;28;20026;-64
2023/09/17 03:37:21;;;;;;;30.35;26.80;;;;;;;14.55;100.00;101107.63;5013462;28;20022;-64
2023/09/17 03:40:07;;;;;;;30.65;25.50;;;;;;;14.52;100.00;101103.50;5013296;28;20030;-64
2023/09/17 03:42:34;;;;;;;29.90;26.67;;;;;;;14.49;100.00;101104.97;5013526;28;20040;-64
2023/09/17 03:44:59;;;;;;;29.90;25.23;;;;;;;14.54;100.00;101108.75;5012973;28;20488;-64
2023/09/17 03:47:25;;;;;;;30.20;26.05;;;;;;;14.56;100.00;101101.72;5013276;28;20026;-64
2023/09/17 03:49:50;;;;;;;31.05;26.98;;;;;;;14.58;100.00;101109.72;5013195;28;20026;-64
2023/09/17 03:52:15;;;;;;;31.08;27.48;;;;;;;14.63;100.00;101110.38;5011840;28;20470;-64
2023/09/17 03:54:41;;;;;;;31.60;28.02;;;;;;;14.63;100.00;101110.38;5013059;28;20033;-65
2023/09/17 03:57:06;;;;;;;31.35;26.75;;;;;;;14.66;100.00;101108.91;5013113;28;20021;-66
2023/09/17 03:59:31;;;;;;;30.10;26.80;;;;;;;14.69;100.00;101102.72;5013229;28;20022;-65
2023/09/17 04:01:56;;;;;;;31.70;27.77;;;;;;;14.72;100.00;101098.47;5013060;28;20022;-65
2023/09/17 04:04:22;;;;;;;30.98;27.15;;;;;;;14.76;100.00;101108.59;5013024;28;20540;-65
2023/09/17 04:06:47;;;;;;;31.90;28.30;;;;;;;14.86;100.00;101104.69;5013009;28;20061;-65
2023/09/17 04:09:13;;;;;;;31.98;28.50;;;;;;;14.90;100.00;101104.84;5012874;28;20033;-65
2023/09/17 04:11:39;;;;;;;30.90;27.35;;;;;;;14.95;100.00;101102.72;5013042;28;20022;-64
2023/09/17 04:14:06;;;;;;;32.58;29.10;;;;;;;14.94;100.00;101106.66;5012690;28;20040;-64
2023/09/17 04:16:32;;;;;;;33.95;30.25;;;;;;;14.89;100.00;101100.41;5012797;28;20026;-65
2023/09/17 04:18:57;;;;;;;32.22;28.73;;;;;;;14.90;100.00;101096.50;5012664;28;20436;-65
2023/09/17 04:21:22;;;;;;;35.67;31.77;;;;;;;14.92;100.00;101091.41;5012032;28;20029;-65
2023/09/17 04:23:48;;;;;;;32.30;28.63;;;;;;;14.95;100.00;101088.78;5012555;28;20424;-64
2023/09/17 04:26:13;;;;;;;33.25;29.65;;;;;;;15.02;100.00;101095.81;5012658;28;20029;-64
2023/09/17 04:28:38;;;;;;;34.38;29.42;;;;;;;15.07;100.00;101090.88;5012664;28;20034;-65
2023/09/17 04:31:04;;;;;;;33.85;29.45;;;;;;;15.15;100.00;101088.41;5012539;28;20474;-64
2023/09/17 04:33:29;;;;;;;32.97;29.08;;;;;;;15.21;100.00;101095.47;5012453;28;20030;-65
2023/09/17 04:35:56;;;;;;;33.88;29.80;;;;;;;15.22;100.00;101089.53;5011017;28;20030;-65
2023/09/17 04:38:21;;;;;;;33.83;30.13;;;;;;;15.25;100.00;101093.63;5012392;28;20021;-65
2023/09/17 04:40:47;;;;;;;33.95;30.35;;;;;;;15.25;100.00;101097.25;5012229;28;20037;-64
2023/09/17 04:43:12;;;;;;;34.25;30.55;;;;;;;15.25;100.00;101088.06;5012323;28;20108;-64
2023/09/17 04:45:38;;;;;;;34.78;30.92;;;;;;;15.28;100.00;101093.78;5012196;28;20498;-65
2023/09/17 04:48:04;;;;;;;35.30;31.50;;;;;;;15.30;100.00;101096.25;5012078;28;20052;-65
2023/09/17 04:50:30;;;;;;;34.22;30.63;;;;;;;15.31;100.00;101095.06;5012248;28;20440;-64
2023/09/17 04:52:56;;;;;;;33.47;29.98;;;;;;;15.32;100.00;101095.91;5012097;28;20034;-65
2023/09/17 04:55:21;;;;;;;35.60;31.67;;;;;;;15.34;100.00;101090.81;5011944;28;20036;-65
2023/09/17 04:57:47;;;;;;;35.92;32.03;;;;;;;15.37;100.00;101090.97;5012095;28;20038;-66
2023/09/17 05:00:13;;;;;;;35.28;31.48;;;;;;;15.37;100.00;101088.19;5012025;28;20029;-66
2023/09/17 05:02:39;;;;;;;35.53;31.63;;;;;;;15.41;100.00;101088.34;5012083;28;20034;-66
2023/09/17 05:05:08;;;;;;;35.72;31.92;;;;;;;15.43;100.00;101088.81;5011826;28;20018;-66
2023/09/17 05:07:33;;;;;;;37.03;33.15;;;;;;;15.46;100.00;101087.34;5010491;28;20156;-65
2023/09/17 05:09:59;;;;;;;36.97;33.08;;;;;;;15.47;100.00;101086.19;5011833;28;20033;-66
2023/09/17 05:12:24;;;;;;;36.97;33.08;;;;;;;15.49;100.00;101087.47;5011843;28;20022;-66
2023/09/17 05:14:49;;;;;;;35.47;31.73;;;;;;;15.53;100.00;101085.69;5011693;28;20085;-66
2023/09/17 05:17:15;;;;;;;35.15;31.45;;;;;;;15.58;100.00;101090.25;5011818;28;20022;-66
2023/09/17 05:19:40;;;;;;;36.55;32.60;;;;;;;15.63;100.00;101092.03;5011571;28;20496;-66
2023/09/17 05:22:06;;;;;;;36.10;32.30;;;;;;;15.65;100.00;101093.31;5011793;28;20030;-66
2023/09/17 05:24:31;;;;;;;35.17;31.48;;;;;;;15.69;100.00;101093.47;5011620;28;20022;-65
2023/09/17 05:26:56;;;;;;;35.92;31.55;;;;;;;15.73;100.00;101098.03;5011424;28;20524;-66
2023/09/17 05:29:22;;;;;;;34.15;30.55;;;;;;;15.77;100.00;101100.16;5011455;28;20105;-66
2023/09/17 05:31:47;;;;;;;35.75;31.95;;;;;;;15.76;100.00;101102.13;5011570;28;20512;-66
2023/09/17 05:34:13;;;;;;;34.28;30.58;;;;;;;15.79;100.00;101097.84;5009494;28;20061;-66
2023/09/17 05:36:38;;;;;;;34.90;31.17;;;;;;;15.80;100.00;101099.47;5011467;28;20037;-66
2023/09/17 05:39:04;;;;;;;35.80;32.08;;;;;;;15.81;100.00;101095.53;5011537;28;20097;-66
2023/09/17 05:41:29;;;;;;;35.05;31.42;;;;;;;15.82;100.00;101097.19;5011619;28;20125;-65
2023/09/17 05:43:54;;;;;;;37.20;33.15;;;;;;;15.79;100.00;101100.63;5011372;28;20121;-65
2023/09/17 05:46:20;;;;;;;36.90;33.00;;;;;;;15.75;100.00;101094.91;5011022;28;20062;-65
2023/09/17 05:48:45;;;;;;;36.63;32.67;;;;;;;15.78;100.00;101096.19;5011263;28;20136;-65
2023/09/17 05:51:10;;;;;;;36.25;32.40;;;;;;;15.81;100.00;101095.53;5011297;28;20489;-65
2023/09/17 05:53:36;;;;;;;36.13;32.28;;;;;;;15.81;100.00;101101.13;5011147;28;20045;-66
2023/09/17 05:56:04;;;;;;;38.05;33.95;;;;;;;15.81;100.00;101101.13;5011269;28;20405;-66
2023/09/17 05:58:29;;;;;;;36.20;32.30;;;;;;;15.84;100.00;101101.28;5011004;28;20477;-66
2023/09/17 06:00:54;;;;;;;36.92;33.03;;;;;;;15.86;100.00;101104.56;5011150;28;20056;-66
2023/09/17 06:03:20;;;;;;;35.55;31.75;;;;;;;15.89;100.00;101106.69;5010935;28;20091;-66
2023/09/17 06:05:45;;;;;;;37.25;33.25;;;;;;;15.93;100.00;101106.00;5009388;28;20108;-66
2023/09/17 06:08:11;;;;;;;39.55;35.40;;;;;;;15.95;100.00;101110.13;5010907;28;20030;-66
2023/09/17 06:10:36;;;;;;;40.08;35.88;;;;;;;15.97;100.00;101105.00;5010990;28;20033;-66
2023/09/17 06:13:02;;;;;;;37.58;33.60;;;;;;;16.01;100.00;101107.97;5010994;28;20068;-66
2023/09/17 06:15:27;;;;;;;38.17;34.13;;;;;;;16.04;100.00;101110.06;5010935;28;20133;-66
2023/09/17 06:17:52;;;;;;;39.20;34.88;;;;;;;16.04;100.00;101107.25;5010919;28;20041;-66
2023/09/17 06:20:18;;;;;;;37.65;33.65;;;;;;;16.08;100.00;101115.78;5010820;28;20117;-66
2023/09/17 06:22:45;;;;;;;35.88;31.90;;;;;;;16.13;100.00;101112.81;5010959;28;20428;-66
2023/09/17 06:25:11;;;;;;;37.35;33.25;;;;;;;16.15;100.00;101111.31;5010866;28;20109;-66
2023/09/17 06:27:36;;;;;;;36.42;32.47;;;;;;;16.16;100.00;101106.53;5010760;28;20152;-66
2023/09/17 06:30:02;;;;;;;36.92;32.72;;;;;;;16.16;100.00;101107.38;5010867;28;20485;-66
2023/09/17 06:32:28;;;;;;;35.63;31.83;;;;;;;16.19;100.00;101109.50;5010785;28;20026;-66
2023/09/17 06:34:53;;;;;;;37.33;33.33;;;;;;;16.20;100.00;101102.72;5010779;28;20037;-66
2023/09/17 06:37:18;;;;;;;37.80;33.70;;;;;;;16.21;100.00;101104.38;5010697;28;20026;-66
2023/09/17 06:39:44;;;;;;;38.83;34.63;;;;;;;16.22;100.00;101102.41;5010720;28;20072;-66
2023/09/17 06:42:10;;;;;;;38.70;33.17;;;;;;;16.22;100.00;101099.63;5009137;28;20056;-66
2023/09/17 06:44:35;;;;;;;38.72;34.35;;;;;;;16.22;100.00;101102.41;5010925;28;20030;-66
2023/09/17 06:47:01;;;;;;;38.50;34.30;;;;;;;16.24;100.00;101102.88;5014243;28;20041;-66
2023/09/17 06:49:26;;;;;;;39.60;35.35;;;;;;;16.25;100.00;101103.69;5014203;28;20026;-66
2023/09/17 06:51:54;;;;;;;39.85;35.50;;;;;;;16.27;100.00;101107.78;5014316;28;20022;-66
2023/09/17 06:54:19;;;;;;;38.65;34.13;;;;;;;16.29;100.00;101108.25;5014385;28;20441;-66
2023/09/17 06:56:44;;;;;;;38.25;34.10;;;;;;;16.27;100.00;101102.19;5014229;28;20555;-66
2023/09/17 06:59:10;;;;;;;40.10;34.88;;;;;;;16.34;100.00;101108.03;5014108;28;20501;-66
2023/09/17 07:01:36;;;;;;;38.75;34.58;;;;;;;16.35;100.00;101106.09;5014199;28;20021;-66
2023/09/17 07:04:01;;;;;;;40.63;35.20;;;;;;;16.36;100.00;101102.16;5013950;28;20030;-66
2023/09/17 07:06:27;;;;;;;39.55;34.53;;;;;;;16.42;100.00;101102.75;5014176;28;20399;-66
2023/09/17 07:08:54;;;;;;;38.97;34.83;;;;;;;16.42;100.00;101103.56;5014035;28;20105;-66
2023/09/17 07:11:19;;;;;;;37.92;33.90;;;;;;;16.44;100.00;101106.00;5013980;28;20033;-66
2023/09/17 07:13:45;;;;;;;39.78;35.33;;;;;;;16.44;100.00;101095.69;5014240;28;20041;-66
2023/09/17 07:16:12;;;;;;;40.25;35.85;;;;;;;16.44;100.00;101103.22;5014188;28;20053;-66
2023/09/17 07:18:37;;;;;;;39.75;35.10;;;;;;;16.47;100.00;101097.78;5013996;28;20034;-66
2023/09/17 07:21:03;;;;;;;41.20;36.28;;;;;;;16.51;100.00;101095.13;5013926;28;20076;-66
2023/09/17 07:23:29;;;;;;;40.35;35.63;;;;;;;16.55;100.00;101100.84;5013704;28;20109;-66
2023/09/17 07:25:55;;;;;;;40.70;35.85;;;;;;;16.56;100.00;101103.28;5013839;28;20060;-67
2023/09/17 07:28:20;;;;;;;40.67;36.28;;;;;;;16.57;100.00;101099.34;5012173;28;20532;-66
2023/09/17 07:30:45;;;;;;;42.40;36.10;;;;;;;16.58;100.00;101097.38;5013606;28;20030;-66
2023/09/17 07:33:12;;;;;;;41.60;35.83;;;;;;;16.59;100.00;101097.03;5013516;28;20022;-66
2023/09/17 07:35:39;;;;;;;41.03;36.63;;;;;;;16.57;100.00;101093.75;5013603;28;20478;-67
2023/09/17 07:38:04;;;;;;;47.03;41.80;;;;;;;16.61;100.00;101103.09;5013440;28;20026;-66
2023/09/17 07:40:30;;;;;;;41.95;36.95;;;;;;;16.63;100.00;101103.56;5013360;28;20156;-66
2023/09/17 07:42:55;;;;;;;45.78;39.70;;;;;;;16.68;100.00;101099.75;5013447;28;20474;-66
2023/09/17 07:45:21;;;;;;;44.67;39.97;;;;;;;16.72;100.00;101095.13;5012955;28;20437;-66
2023/09/17 07:47:46;;;;;;;42.33;37.70;;;;;;;16.78;100.00;101099.31;5013003;28;20052;-66
2023/09/17 07:50:11;;;;;;;44.42;39.00;;;;;;;16.80;100.00;101105.41;5013113;28;20030;-66
2023/09/17 07:52:38;;;;;;;42.53;37.10;;;;;;;16.86;100.00;101096.81;5013032;28;20030;-66
2023/09/17 07:55:04;;;;;;;43.50;38.20;;;;;;;16.82;100.00;101091.91;5013256;28;20033;-66
2023/09/17 07:57:29;;;;;;;42.83;37.58;;;;;;;16.89;100.00;101096.09;5012087;28;20449;-67
2023/09/17 07:59:55;;;;;;;42.22;37.38;;;;;;;16.94;100.00;101105.13;5013002;28;20109;-66
2023/09/17 08:02:20;;;;;;;42.42;37.83;;;;;;;16.98;100.00;101105.25;5012775;28;20221;-66
2023/09/17 08:04:45;;;;;;;42.95;38.35;;;;;;;17.01;100.00;101104.56;5012721;28;20466;-66
2023/09/17 08:07:14;;;;;;;44.13;39.35;;;;;;;17.02;100.00;101108.19;5012819;28;20197;-66
2023/09/17 08:09:39;;;;;;;44.15;38.97;;;;;;;17.10;100.00;101098.88;5012810;28;20057;-66
2023/09/17 08:12:05;;;;;;;42.42;37.88;;;;;;;17.13;100.00;101098.19;5012830;28;20033;-66
2023/09/17 08:14:33;;;;;;;43.35;38.63;;;;;;;17.16;100.00;101097.53;5012831;28;20072;-66
2023/09/17 08:16:58;;;;;;;45.40;39.17;;;;;;;17.21;100.00;101097.28;5012612;28;20030;-66
2023/09/17 08:19:23;;;;;;;41.78;37.20;;;;;;;17.28;100.00;101103.16;5012756;28;20022;-66
2023/09/17 08:21:49;;;;;;;42.22;37.63;;;;;;;17.34;100.00;101108.50;5012752;28;20032;-66
2023/09/17 08:24:15;;;;;;;42.63;37.97;;;;;;;17.35;100.00;101105.34;5012527;28;20034;-67
2023/09/17 08:26:40;;;;;;;43.60;38.88;;;;;;;17.35;100.00;101107.34;5012656;28;20029;-66
2023/09/17 08:29:06;;;;;;;41.80;37.17;;;;;;;17.32;100.00;101106.06;5012432;28;20025;-67
2023/09/17 08:31:32;;;;;;;43.25;38.60;;;;;;;17.33;100.00;101109.66;5012480;28;20382;-67
2023/09/17 08:33:58;;;;;;;45.33;40.25;;;;;;;17.38;100.00;101109.47;5013006;28;20112;-67
2023/09/17 08:36:23;;;;;;;45.70;39.53;;;;;;;17.39;100.00;101109.09;5012378;28;20482;-67
2023/09/17 08:38:49;;;;;;;45.55;39.50;;;;;;;17.48;100.00;101113.78;5012409;28;20052;-67
2023/09/17 08:41:18;;;;;;;44.60;38.65;;;;;;;17.57;100.00;101112.50;5012303;28;20044;-67
2023/09/17 08:43:44;;;;;;;44.58;39.72;;;;;;;17.66;100.00;101115.19;5012189;28;20018;-67
2023/09/17 08:46:10;;;;;;;46.35;41.35;;;;;;;17.70;100.00;101110.56;5011900;28;20045;-67
2023/09/17 08:48:35;;;;;;;46.10;41.08;;;;;;;17.71;100.00;101120.56;5012260;28;20025;-67
2023/09/17 08:51:01;;;;;;;47.67;42.40;;;;;;;17.71;100.00;101116.97;5012186;28;20359;-67
2023/09/17 08:53:31;;;;;;;49.67;43.92;;;;;;;17.75;100.00;101113.13;5012103;28;20236;-67
2023/09/17 08:55:59;;;;;;;48.58;43.28;;;;;;;17.85;100.00;101113.81;5012208;28;20037;-67
2023/09/17 08:58:29;;;;;;;49.35;43.63;;;;;;;17.90;100.00;101117.19;5011894;28;20432;-67
2023/09/17 09:00:58;;;;;;;52.50;46.78;;;;;;;17.89;100.00;101120.34;5012178;28;20370;-67
2023/09/17 09:03:26;;;;;;;50.35;44.63;;;;;;;17.96;100.00;101126.22;5011878;28;20037;-67
2023/09/17 09:05:55;;;;;;;51.45;45.85;;;;;;;17.99;100.00;101127.50;5011874;28;20497;-67
2023/09/17 09:08:21;;;;;;;51.05;45.55;;;;;;;18.02;100.00;101126.78;5011961;28;20102;-67
2023/09/17 09:10:46;;;;;;;50.88;45.47;;;;;;;18.07;100.00;101132.16;5011857;28;20048;-67
2023/09/17 09:13:12;;;;;;;53.15;47.30;;;;;;;18.12;100.00;101128.28;5011755;28;20337;-67
2023/09/17 09:15:38;;;;;;;51.80;46.10;;;;;;;18.16;100.00;101132.03;5011715;28;20117;-67
2023/09/17 09:18:03;;;;;;;53.30;46.95;;;;;;;18.21;100.00;101132.63;5011786;28;20033;-67
2023/09/17 09:20:29;;;;;;;52.60;46.88;;;;;;;18.23;100.00;101140.66;5011691;28;20422;-67
2023/09/17 09:22:54;;;;;;;52.53;46.67;;;;;;;18.18;100.00;101138.91;5011738;28;20112;-67
2023/09/17 09:25:19;;;;;;;50.42;44.92;;;;;;;18.23;100.00;101133.06;5011556;28;20030;-67
2023/09/17 09:27:45;;;;;;;51.65;45.95;;;;;;;18.30;100.00;101137.28;5011528;28;20486;-67
2023/09/17 09:30:14;;;;;;;51.47;46.08;;;;;;;18.43;100.00;101132.47;5011561;28;20029;-67
2023/09/17 09:32:40;;;;;;;50.45;45.00;;;;;;;18.69;100.00;101130.06;5011658;28;20536;-67
2023/09/17 09:35:07;;;;;;;51.03;45.55;;;;;;;18.88;100.00;101130.59;5011490;28;20041;-67
2023/09/17 09:37:34;;;;;;;49.38;43.97;;;;;;;19.05;100.00;101116.28;5011489;28;20034;-68
2023/09/17 09:40:00;;;;;;;49.97;44.67;;;;;;;19.22;100.00;101128.34;5011408;28;20030;-69
2023/09/17 09:42:26;;;;;;;49.67;44.33;;;;;;;19.27;100.00;101128.91;5011435;28;20030;-67
2023/09/17 09:44:52;;;;;;;50.78;44.55;;;;;;;19.35;100.00;101124.31;5011666;28;20057;-67
2023/09/17 09:47:21;;;;;;;49.85;43.90;;;;;;;19.45;100.00;101118.19;5011302;28;20038;-67
2023/09/17 09:49:46;;;;;;;48.58;43.30;;;;;;;19.55;100.00;101113.19;5011374;28;20084;-67
2023/09/17 09:52:15;;;;;;;48.78;43.53;;;;;;;19.61;100.00;101120.16;5011353;28;20026;-67
2023/09/17 09:54:41;;;;;;;48.17;42.88;;;;;;;19.62;100.00;101119.78;5011205;28;20034;-67
2023/09/17 09:57:07;;;;;;;49.08;43.95;;;;;;;19.63;100.00;101115.81;5011205;28;20034;-67
2023/09/17 09:59:34;;;;;;;46.63;41.53;;;;;;;19.59;100.00;101114.94;5011145;28;20473;-69
2023/09/17 10:02:03;;;;;;;47.47;42.15;;;;;;;19.57;100.00;101125.69;5011144;28;20030;-68
2023/09/17 10:04:29;;;;;;;47.25;42.20;;;;;;;19.53;100.00;101119.16;5011208;28;20042;-67
2023/09/17 10:06:56;;;;;;;48.53;42.53;;;;;;;19.48;100.00;101122.25;5011035;28;20029;-68
2023/09/17 10:09:23;;;;;;;48.67;43.42;;;;;;;19.39;100.00;101111.19;5011438;28;20038;-68
2023/09/17 10:11:48;;;;;;;51.65;44.47;;;;;;;19.37;100.00;101121.13;5011128;28;20065;-66
2023/09/17 10:14:14;;;;;;;49.63;44.22;;;;;;;19.36;100.00;101111.91;5011190;28;20036;-66
2023/09/17 10:16:40;;;;;;;49.38;44.08;;;;;;;19.35;100.00;101110.28;5010965;28;20429;-67
2023/09/17 10:19:07;;;;;;;50.20;43.58;;;;;;;19.36;100.00;101111.09;5011092;28;20108;-68
2023/09/17 10:21:39;;;;;;;47.85;41.60;;;;;;;19.42;100.00;101118.06;5014618;28;20037;-66
2023/09/17 10:24:05;;;;;;;46.75;41.22;;;;;;;19.45;100.00;101111.72;5014861;28;20025;-68
2023/09/17 10:26:34;;;;;;;44.42;37.83;;;;;;;19.42;100.00;101104.03;5014840;28;20053;-68
2023/09/17 10:29:00;;;;;;;44.25;38.30;;;;;;;19.46;100.00;101110.56;5015074;28;20100;-66
2023/09/17 10:31:26;;;;;;;42.08;36.47;;;;;;;19.47;100.00;101103.78;5014774;28;20133;-66
2023/09/17 10:33:52;;;;;;;43.75;35.75;;;;;;;19.45;100.00;101106.13;5014864;28;20037;-67
2023/09/17 10:36:18;;;;;;;43.20;34.88;;;;;;;19.48;100.00;101099.78;5014774;28;20101;-67
2023/09/17 10:38:46;;;;;;;45.17;36.88;;;;;;;19.48;100.00;101097.00;5014705;28;20045;-67
2023/09/17 10:41:13;;;;;;;44.70;36.83;;;;;;;19.47;100.00;101098.16;5014749;28;20121;-67
2023/09/17 10:43:39;;;;;;;46.22;36.53;;;;;;;19.47;100.00;101107.38;5014598;28;20030;-67
2023/09/17 10:46:06;;;;;;;44.13;36.47;;;;;;;19.49;100.00;101112.66;5014592;28;20132;-67
2023/09/17 10:48:33;;;;;;;43.22;34.40;;;;;;;19.49;100.00;101096.63;5014647;28;20030;-67
2023/09/17 10:50:59;;;;;;;42.25;35.03;;;;;;;19.58;100.00;101099.25;5014457;28;20041;-67
2023/09/17 10:53:28;;;;;;;44.42;35.83;;;;;;;19.63;100.00;101103.78;5014429;28;20120;-67
2023/09/17 10:56:15;;;;;;;44.28;36.58;;;;;;;19.75;100.00;101105.69;5014344;28;20489;-67
2023/09/17 10:58:45;;;;;;;44.67;36.20;;;;;;;19.85;100.00;101107.09;5014436;28;20121;-67